createdAt,value
2022-11-05T00:01:44.691Z,4.20
2022-11-05T00:04:31.178Z,4.07
2022-11-05T00:07:30.310Z,4.13
2022-11-05T00:10:03.739Z,4.40
2022-11-05T00:12:48.651Z,4.10
2022-11-05T00:15:35.542Z,3.80
2022-11-05T00:18:05.342Z,3.97
2022-11-05T00:20:33.339Z,4.00
2022-11-05T00:23:19.540Z,4.00
2022-11-05T00:25:55.859Z,4.57
2022-11-05T00:28:24.150Z,3.97
2022-11-05T00:30:52.447Z,3.57
2022-11-05T00:33:22.221Z,4.63
2022-11-05T00:35:50.157Z,4.40
2022-11-05T00:38:18.101Z,4.40
2022-11-05T00:40:46.511Z,3.67
2022-11-05T00:43:31.710Z,4.30
2022-11-05T00:45:59.774Z,4.30
2022-11-05T00:48:46.942Z,3.50
2022-11-05T00:51:14.851Z,3.97
2022-11-05T00:53:42.848Z,4.13
2022-11-05T00:56:11.035Z,3.87
2022-11-05T00:58:39.232Z,3.90
2022-11-05T01:01:07.383Z,3.97
2022-11-05T01:03:39.630Z,4.10
2022-11-05T01:06:10.267Z,3.87
2022-11-05T01:08:38.634Z,3.60
2022-11-05T01:11:11.656Z,3.80
2022-11-05T01:13:41.308Z,3.93
2022-11-05T01:16:12.015Z,3.40
2022-11-05T01:18:41.231Z,3.77
2022-11-05T01:21:13.759Z,3.70
2022-11-05T01:23:41.772Z,3.33
2022-11-05T01:26:09.811Z,3.47
2022-11-05T01:28:37.953Z,3.17
2022-11-05T01:31:05.942Z,3.40
2022-11-05T01:33:33.858Z,3.90
2022-11-05T01:36:03.130Z,3.77
2022-11-05T01:38:30.987Z,3.27
2022-11-05T01:40:58.853Z,3.47
2022-11-05T01:43:26.988Z,3.30
2022-11-05T01:45:59.352Z,3.40
2022-11-05T01:48:33.278Z,3.50
2022-11-05T01:51:05.483Z,3.50
2022-11-05T01:53:38.190Z,3.80
2022-11-05T01:56:09.594Z,3.70
2022-11-05T01:58:43.040Z,4.60
2022-11-05T02:01:10.995Z,4.13
2022-11-05T02:03:39.273Z,3.57
2022-11-05T02:06:10.069Z,3.67
2022-11-05T02:08:55.244Z,4.10
2022-11-05T02:11:23.333Z,3.30
2022-11-05T02:13:52.003Z,3.53
2022-11-05T02:16:32.603Z,3.67
2022-11-05T02:19:10.845Z,3.30
2022-11-05T02:22:17.342Z,3.90
2022-11-05T02:25:05.667Z,3.90
2022-11-05T02:27:56.151Z,4.00
2022-11-05T02:30:39.547Z,4.03
2022-11-05T02:33:36.842Z,3.63
2022-11-05T02:36:32.614Z,3.23
2022-11-05T02:39:14.034Z,4.07
2022-11-05T02:41:50.265Z,4.27
2022-11-05T02:44:28.989Z,3.43
2022-11-05T02:47:07.007Z,3.90
2022-11-05T02:49:47.871Z,3.27
2022-11-05T02:52:22.281Z,3.97
2022-11-05T02:54:59.081Z,3.83
2022-11-05T02:57:30.712Z,3.80
2022-11-05T03:00:02.893Z,3.37
2022-11-05T03:02:33.113Z,3.93
2022-11-05T03:05:02.227Z,3.80
2022-11-05T03:07:39.299Z,3.73
2022-11-05T03:10:20.061Z,4.17
2022-11-05T03:13:01.698Z,3.30
2022-11-05T03:15:47.325Z,3.70
2022-11-05T03:18:22.067Z,4.23
2022-11-05T03:20:55.253Z,4.37
2022-11-05T03:23:28.944Z,4.00
2022-11-05T03:26:03.118Z,4.23
2022-11-05T03:28:36.570Z,3.50
2022-11-05T03:31:06.848Z,3.77
2022-11-05T03:33:40.182Z,3.73
2022-11-05T03:36:16.175Z,3.80
2022-11-05T03:38:48.088Z,4.10
2022-11-05T03:41:17.289Z,3.90
2022-11-05T03:43:49.455Z,3.70
2022-11-05T03:46:21.508Z,4.23
2022-11-05T03:48:55.463Z,3.97
2022-11-05T03:51:30.653Z,4.17
2022-11-05T03:54:02.251Z,3.87
2022-11-05T03:56:34.246Z,4.47
2022-11-05T03:59:04.025Z,4.23
2022-11-05T04:01:32.820Z,4.10
2022-11-05T04:04:02.221Z,4.37
2022-11-05T04:06:47.756Z,4.43
2022-11-05T04:09:32.891Z,4.30
2022-11-05T04:12:18.545Z,3.77
2022-11-05T04:14:46.481Z,3.90
2022-11-05T04:17:13.356Z,3.47
2022-11-05T04:20:01.205Z,3.90
2022-11-05T04:22:48.934Z,4.10
2022-11-05T04:25:18.630Z,3.83
2022-11-05T04:27:47.188Z,3.87
2022-11-05T04:30:18.679Z,4.50
2022-11-05T04:33:03.011Z,4.00
2022-11-05T04:35:34.284Z,3.97
2022-11-05T04:38:02.965Z,3.83
2022-11-05T04:40:31.334Z,3.53
2022-11-05T04:42:59.674Z,4.17
2022-11-05T04:45:29.659Z,4.07
2022-11-05T04:47:57.763Z,4.03
2022-11-05T04:50:25.799Z,4.00
2022-11-05T04:52:55.076Z,4.57
2022-11-05T04:55:23.322Z,4.30
2022-11-05T04:57:52.854Z,4.33
2022-11-05T05:00:22.405Z,4.07
2022-11-05T05:02:51.711Z,3.80
2022-11-05T05:05:19.798Z,4.03
2022-11-05T05:07:47.819Z,4.20
2022-11-05T05:10:17.269Z,4.00
2022-11-05T05:12:45.314Z,3.43
2022-11-05T05:15:13.434Z,3.87
2022-11-05T05:17:41.392Z,5.50
2022-11-05T05:20:27.273Z,4.60
2022-11-05T05:22:55.950Z,3.70
2022-11-05T05:25:25.480Z,4.20
2022-11-05T05:27:53.458Z,4.13
2022-11-05T05:30:21.380Z,6.77
2022-11-05T05:32:49.264Z,5.03
2022-11-05T05:35:17.675Z,3.60
2022-11-05T05:37:45.650Z,3.80
2022-11-05T05:40:13.543Z,4.03
2022-11-05T05:42:43.587Z,4.27
2022-11-05T05:45:12.745Z,3.90
2022-11-05T05:47:40.731Z,3.97
2022-11-05T05:50:09.111Z,3.70
2022-11-05T05:52:37.318Z,3.70
2022-11-05T05:55:05.626Z,4.30
2022-11-05T05:57:33.516Z,3.90
2022-11-05T06:00:02.858Z,4.40
2022-11-05T06:02:31.688Z,3.87
2022-11-05T06:04:59.616Z,4.70
2022-11-05T06:07:28.492Z,4.10
2022-11-05T06:09:58.555Z,4.20
2022-11-05T06:12:26.435Z,4.50
2022-11-05T06:14:54.509Z,4.53
2022-11-05T06:17:23.811Z,4.47
2022-11-05T06:19:51.752Z,4.07
2022-11-05T06:22:19.737Z,4.00
2022-11-05T06:24:47.667Z,3.97
2022-11-05T06:27:15.553Z,3.80
2022-11-05T06:29:43.549Z,4.27
2022-11-05T06:32:11.414Z,3.80
2022-11-05T06:34:40.695Z,4.30
2022-11-05T06:37:08.675Z,4.20
2022-11-05T06:39:36.626Z,4.10
2022-11-05T06:42:17.765Z,4.03
2022-11-05T06:44:46.544Z,4.27
2022-11-05T06:47:14.459Z,4.00
2022-11-05T06:49:43.687Z,3.97
2022-11-05T06:52:11.817Z,4.20
2022-11-05T06:54:39.766Z,4.43
2022-11-05T06:57:09.720Z,4.20
2022-11-05T06:59:37.913Z,3.97
2022-11-05T07:02:06.439Z,3.37
2022-11-05T07:04:34.683Z,3.93
2022-11-05T07:07:04.242Z,4.87
2022-11-05T07:09:32.130Z,3.83
2022-11-05T07:11:59.997Z,3.87
2022-11-05T07:14:28.065Z,3.60
2022-11-05T07:16:57.514Z,3.70
2022-11-05T07:19:25.335Z,4.20
2022-11-05T07:21:53.223Z,4.10
2022-11-05T07:24:22.470Z,3.53
2022-11-05T07:26:50.282Z,3.90
2022-11-05T07:29:18.261Z,3.83
2022-11-05T07:31:47.002Z,3.60
2022-11-05T07:34:14.904Z,3.63
2022-11-05T07:36:42.970Z,4.00
2022-11-05T07:39:11.038Z,3.70
2022-11-05T07:41:40.208Z,3.57
2022-11-05T07:44:08.513Z,3.73
2022-11-05T07:46:36.353Z,3.70
2022-11-05T07:49:04.313Z,4.10
2022-11-05T07:51:32.205Z,4.33
2022-11-05T07:54:00.160Z,4.20
2022-11-05T07:56:28.070Z,3.53
2022-11-05T07:58:57.465Z,3.93
2022-11-05T08:01:25.545Z,3.30
2022-11-05T08:03:53.642Z,3.80
2022-11-05T08:06:21.844Z,4.00
2022-11-05T08:08:49.671Z,3.43
2022-11-05T08:11:18.901Z,3.77
2022-11-05T08:13:46.836Z,3.57
2022-11-05T08:16:16.592Z,3.27
2022-11-05T08:18:44.732Z,3.57
2022-11-05T08:21:12.669Z,3.17
2022-11-05T08:23:42.500Z,3.00
2022-11-05T08:26:11.654Z,3.50
2022-11-05T08:28:39.562Z,3.30
2022-11-05T08:31:07.436Z,3.30
2022-11-05T08:33:36.659Z,2.97
2022-11-05T08:36:05.380Z,3.80
2022-11-05T08:38:33.248Z,3.00
2022-11-05T08:41:01.080Z,3.23
2022-11-05T08:43:29.080Z,3.13
2022-11-05T08:45:57.104Z,3.00
2022-11-05T08:48:24.954Z,3.37
2022-11-05T08:50:54.391Z,3.13
2022-11-05T08:53:22.491Z,3.53
2022-11-05T08:55:51.542Z,3.30
2022-11-05T08:58:20.940Z,2.97
2022-11-05T09:00:50.543Z,3.20
2022-11-05T09:03:19.256Z,3.20
2022-11-05T09:05:47.869Z,3.00
2022-11-05T09:08:19.251Z,2.83
2022-11-05T09:10:49.814Z,3.47
2022-11-05T09:13:20.099Z,3.00
2022-11-05T09:15:48.664Z,3.30
2022-11-05T09:18:17.593Z,2.73
2022-11-05T09:20:45.528Z,3.30
2022-11-05T09:23:15.659Z,2.80
2022-11-05T09:25:45.895Z,3.03
2022-11-05T09:28:17.355Z,2.90
2022-11-05T09:30:47.319Z,2.90
2022-11-05T09:33:16.003Z,3.30
2022-11-05T09:35:44.323Z,2.90
2022-11-05T09:38:12.496Z,3.30
2022-11-05T09:40:48.231Z,2.87
2022-11-05T09:43:20.095Z,2.87
2022-11-05T09:45:50.871Z,2.93
2022-11-05T09:48:24.546Z,3.10
2022-11-05T09:50:54.821Z,2.53
2022-11-05T09:53:24.668Z,3.00
2022-11-05T09:55:57.498Z,2.70
2022-11-05T09:58:36.901Z,3.10
2022-11-05T10:01:07.918Z,2.83
2022-11-05T10:03:43.598Z,2.97
2022-11-05T10:06:15.586Z,2.70
2022-11-05T10:08:46.903Z,3.03
2022-11-05T10:11:19.510Z,3.20
2022-11-05T10:13:50.270Z,3.00
2022-11-05T10:16:25.479Z,3.23
2022-11-05T10:18:58.508Z,2.77
2022-11-05T10:21:51.354Z,3.23
2022-11-05T10:24:18.717Z,2.50
2022-11-05T10:26:51.652Z,2.57
2022-11-05T10:29:27.020Z,2.97
2022-11-05T10:31:57.145Z,3.07
2022-11-05T10:34:28.580Z,2.67
2022-11-05T10:36:56.592Z,2.30
2022-11-05T10:39:27.959Z,2.80
2022-11-05T10:42:23.493Z,2.90
2022-11-05T10:45:00.285Z,2.73
2022-11-05T10:47:50.187Z,2.90
2022-11-05T10:50:21.352Z,3.00
2022-11-05T10:52:59.432Z,3.10
2022-11-05T10:55:30.208Z,2.80
2022-11-05T10:58:19.430Z,3.30
2022-11-05T11:01:02.905Z,2.80
2022-11-05T11:03:46.018Z,3.00
2022-11-05T11:06:24.472Z,3.10
2022-11-05T11:08:54.352Z,3.00
2022-11-05T11:11:36.959Z,5.37
2022-11-05T11:14:19.248Z,3.00
2022-11-05T11:16:50.380Z,2.90
2022-11-05T11:19:30.537Z,2.93
2022-11-05T11:22:18.870Z,2.53
2022-11-05T11:24:49.495Z,2.63
2022-11-05T11:27:22.196Z,2.50
2022-11-05T11:29:56.816Z,2.67
2022-11-05T11:32:28.605Z,2.50
2022-11-05T11:34:58.667Z,3.43
2022-11-05T11:37:29.943Z,2.20
2022-11-05T11:40:01.919Z,2.57
2022-11-05T11:42:33.866Z,2.70
2022-11-05T11:45:07.471Z,2.50
2022-11-05T11:47:35.485Z,2.50
2022-11-05T11:50:03.589Z,2.50
2022-11-05T11:52:33.643Z,2.50
2022-11-05T11:55:23.117Z,3.00
2022-11-05T11:57:53.215Z,2.53
2022-11-05T12:00:26.946Z,2.73
2022-11-05T12:03:15.368Z,2.90
2022-11-05T12:05:49.519Z,2.93
2022-11-05T12:08:33.871Z,2.67
2022-11-05T12:11:06.932Z,2.67
2022-11-05T12:14:04.480Z,3.03
2022-11-05T12:17:15.471Z,2.93
2022-11-05T12:20:20.702Z,2.50
2022-11-05T12:23:18.275Z,2.60
2022-11-05T12:25:53.043Z,2.50
2022-11-05T12:28:57.843Z,2.80
2022-11-05T12:31:35.275Z,2.77
2022-11-05T12:34:18.954Z,2.63
2022-11-05T12:37:06.084Z,2.53
2022-11-05T12:39:45.118Z,2.70
2022-11-05T12:42:26.107Z,2.70
2022-11-05T12:45:02.897Z,2.50
2022-11-05T12:47:49.910Z,2.80
2022-11-05T12:50:26.087Z,2.90
2022-11-05T12:53:24.746Z,2.90
2022-11-05T12:55:53.842Z,2.57
2022-11-05T12:58:27.512Z,3.10
2022-11-05T13:01:00.492Z,2.97
2022-11-05T13:03:37.543Z,3.47
2022-11-05T13:06:10.766Z,2.80
2022-11-05T13:08:44.128Z,2.43
2022-11-05T13:11:19.527Z,2.47
2022-11-05T13:13:54.352Z,3.00
2022-11-05T13:16:30.472Z,2.77
2022-11-05T13:19:03.955Z,2.70
2022-11-05T13:21:33.463Z,2.80
2022-11-05T13:24:06.958Z,2.30
2022-11-05T13:26:41.026Z,2.63
2022-11-05T13:29:14.371Z,2.80
2022-11-05T13:31:49.898Z,2.77
2022-11-05T13:34:17.861Z,3.10
2022-11-05T13:37:12.746Z,3.07
2022-11-05T13:39:46.172Z,2.70
2022-11-05T13:42:57.720Z,2.90
2022-11-05T13:45:52.894Z,3.10
2022-11-05T13:48:47.578Z,2.90
2022-11-05T13:51:43.441Z,2.90
2022-11-05T13:54:37.218Z,3.60
2022-11-05T13:57:33.366Z,7.07
2022-11-05T14:00:13.521Z,4.27
2022-11-05T14:02:45.167Z,5.23
2022-11-05T14:05:25.060Z,4.40
2022-11-05T14:07:54.780Z,6.83
2022-11-05T14:10:57.764Z,7.20
2022-11-05T14:13:32.439Z,4.83
2022-11-05T14:16:06.242Z,4.13
2022-11-05T14:18:41.437Z,6.57
2022-11-05T14:21:34.554Z,3.40
2022-11-05T14:24:25.965Z,4.07
2022-11-05T14:27:31.367Z,3.13
2022-11-05T14:30:02.414Z,3.40
2022-11-05T14:32:50.033Z,4.47
2022-11-05T14:35:37.398Z,3.20
2022-11-05T14:38:17.088Z,3.17
2022-11-05T14:40:46.243Z,3.50
2022-11-05T14:43:22.024Z,3.40
2022-11-05T14:46:01.382Z,3.50
2022-11-05T14:48:40.351Z,3.10
2022-11-05T14:51:26.846Z,3.70
2022-11-05T14:54:02.254Z,3.47
2022-11-05T14:56:42.301Z,3.63
2022-11-05T14:59:48.818Z,3.30
2022-11-05T15:02:21.858Z,3.40
2022-11-05T15:04:52.773Z,3.20
2022-11-05T15:07:38.793Z,3.60
2022-11-05T15:10:11.745Z,4.60
2022-11-05T15:12:45.962Z,3.23
2022-11-05T15:15:22.406Z,4.27
2022-11-05T15:18:02.110Z,4.07
2022-11-05T15:20:40.155Z,3.83
2022-11-05T15:23:13.419Z,3.93
2022-11-05T15:25:53.168Z,4.30
2022-11-05T15:28:28.659Z,3.50
2022-11-05T15:30:58.579Z,3.70
2022-11-05T15:33:28.375Z,3.20
2022-11-05T15:36:11.223Z,3.43
2022-11-05T15:38:39.197Z,3.30
2022-11-05T15:41:14.832Z,4.10
2022-11-05T15:43:47.894Z,3.80
2022-11-05T15:46:18.017Z,3.40
2022-11-05T15:48:52.941Z,3.73
2022-11-05T15:51:22.735Z,3.67
2022-11-05T15:54:28.498Z,3.60
2022-11-05T15:56:51.354Z,4.00
2022-11-05T15:59:21.712Z,5.10
2022-11-05T16:01:52.848Z,4.07
2022-11-05T16:04:24.901Z,4.10
2022-11-05T16:06:55.249Z,3.60
2022-11-05T16:09:25.219Z,3.40
2022-11-05T16:12:14.643Z,3.90
2022-11-05T16:14:43.524Z,4.07
2022-11-05T16:17:18.594Z,4.07
2022-11-05T16:19:49.548Z,4.00
2022-11-05T16:22:18.063Z,4.00
2022-11-05T16:24:47.040Z,4.00
2022-11-05T16:27:19.609Z,3.57
2022-11-05T16:29:53.239Z,3.90
2022-11-05T16:32:29.893Z,4.07
2022-11-05T16:35:02.768Z,4.07
2022-11-05T16:37:37.859Z,3.90
2022-11-05T16:40:14.549Z,4.10
2022-11-05T16:42:42.831Z,4.50
2022-11-05T16:45:14.858Z,4.30
2022-11-05T16:47:44.194Z,4.30
2022-11-05T16:50:21.639Z,4.37
2022-11-05T16:52:50.180Z,3.90
2022-11-05T16:55:19.144Z,3.93
2022-11-05T16:57:52.266Z,4.20
2022-11-05T17:00:22.192Z,4.70
2022-11-05T17:02:50.484Z,4.20
2022-11-05T17:05:23.519Z,4.70
2022-11-05T17:07:51.762Z,4.90
2022-11-05T17:10:20.158Z,4.20
2022-11-05T17:12:48.365Z,4.57
2022-11-05T17:15:21.397Z,4.70
2022-11-05T17:17:49.706Z,4.60
2022-11-05T17:20:28.893Z,4.90
2022-11-05T17:22:57.879Z,5.10
2022-11-05T17:25:26.533Z,4.97
2022-11-05T17:27:54.708Z,5.43
2022-11-05T17:30:22.992Z,5.30
2022-11-05T17:32:51.174Z,5.00
2022-11-05T17:35:19.623Z,5.03
2022-11-05T17:37:49.222Z,5.10
2022-11-05T17:40:19.607Z,4.83
2022-11-05T17:42:48.295Z,6.10
2022-11-05T17:45:20.072Z,5.70
2022-11-05T17:47:48.037Z,5.43
2022-11-05T17:50:17.212Z,6.13
2022-11-05T17:52:45.386Z,5.90
2022-11-05T17:55:18.393Z,6.40
2022-11-05T17:57:49.682Z,5.80
2022-11-05T18:00:19.965Z,5.97
2022-11-05T18:02:49.521Z,6.30
2022-11-05T18:05:18.241Z,5.77
2022-11-05T18:07:46.728Z,5.63
2022-11-05T18:10:17.147Z,5.90
2022-11-05T18:12:45.406Z,5.67
2022-11-05T18:15:13.979Z,6.57
2022-11-05T18:17:42.822Z,7.10
2022-11-05T18:20:17.439Z,6.30
2022-11-05T18:22:47.140Z,7.13
2022-11-05T18:25:16.719Z,6.30
2022-11-05T18:27:45.170Z,6.53
2022-11-05T18:30:15.717Z,6.10
2022-11-05T18:32:44.297Z,6.83
2022-11-05T18:35:13.264Z,6.27
2022-11-05T18:37:41.571Z,6.40
2022-11-05T18:40:10.155Z,6.40
2022-11-05T18:42:39.514Z,6.20
2022-11-05T18:45:08.739Z,6.63
2022-11-05T18:47:36.928Z,6.30
2022-11-05T18:50:06.393Z,6.67
2022-11-05T18:52:34.579Z,6.10
2022-11-05T18:55:02.468Z,6.23
2022-11-05T18:57:30.289Z,5.70
2022-11-05T18:59:59.728Z,6.00
2022-11-05T19:02:28.037Z,6.50
2022-11-05T19:05:26.729Z,5.40
2022-11-05T19:07:43.951Z,6.00
2022-11-05T19:10:11.859Z,6.27
2022-11-05T19:12:39.781Z,5.50
2022-11-05T19:15:11.030Z,5.80
2022-11-05T19:17:38.935Z,5.83
2022-11-05T19:20:09.087Z,4.97
2022-11-05T19:22:37.021Z,5.70
2022-11-05T19:25:05.565Z,5.23
2022-11-05T19:27:33.460Z,5.53
2022-11-05T19:30:02.501Z,4.97
2022-11-05T19:32:31.848Z,4.87
2022-11-05T19:34:59.683Z,5.40
2022-11-05T19:37:27.684Z,5.13
2022-11-05T19:39:55.549Z,5.30
2022-11-05T19:42:23.443Z,5.50
2022-11-05T19:44:51.611Z,5.10
2022-11-05T19:47:19.477Z,5.17
2022-11-05T19:49:48.690Z,4.93
2022-11-05T19:52:16.761Z,5.23
2022-11-05T19:54:46.030Z,5.23
2022-11-05T19:57:14.243Z,6.23
2022-11-05T19:59:42.166Z,5.60
2022-11-05T20:02:16.073Z,5.97
2022-11-05T20:04:44.519Z,6.03
2022-11-05T20:07:13.726Z,6.30
2022-11-05T20:09:41.656Z,6.33
2022-11-05T20:12:09.581Z,6.27
2022-11-05T20:14:37.514Z,6.70
2022-11-05T20:17:05.494Z,6.30
2022-11-05T20:19:33.703Z,6.80
2022-11-05T20:22:01.806Z,6.40
2022-11-05T20:24:31.587Z,6.67
2022-11-05T20:26:59.674Z,6.80
2022-11-05T20:29:33.837Z,6.97
2022-11-05T20:32:03.602Z,6.93
2022-11-05T20:34:32.997Z,7.30
2022-11-05T20:37:01.307Z,7.40
2022-11-05T20:39:30.747Z,7.50
2022-11-05T20:42:00.579Z,7.87
2022-11-05T20:44:28.843Z,7.90
2022-11-05T20:46:59.517Z,7.37
2022-11-05T20:49:27.531Z,8.90
2022-11-05T20:51:55.609Z,8.17
2022-11-05T20:54:24.252Z,7.90
2022-11-05T20:56:53.561Z,7.57
2022-11-05T20:59:21.517Z,7.90
2022-11-05T21:01:51.258Z,7.87
2022-11-05T21:04:19.498Z,7.63
2022-11-05T21:06:47.622Z,7.93
2022-11-05T21:09:15.874Z,8.17
2022-11-05T21:12:03.369Z,7.60
2022-11-05T21:14:32.918Z,7.23
2022-11-05T21:17:00.962Z,7.40
2022-11-05T21:19:29.528Z,7.17
2022-11-05T21:21:57.400Z,7.80
2022-11-05T21:24:25.438Z,7.90
2022-11-05T21:26:53.643Z,7.70
2022-11-05T21:29:21.826Z,8.33
2022-11-05T21:31:51.590Z,7.53
2022-11-05T21:34:20.139Z,8.33
2022-11-05T21:36:48.319Z,8.03
2022-11-05T21:39:16.153Z,7.50
2022-11-05T21:41:44.709Z,7.50
2022-11-05T21:44:12.858Z,7.30
2022-11-05T21:46:40.943Z,7.50
2022-11-05T21:49:10.557Z,7.73
2022-11-05T21:51:55.985Z,7.30
2022-11-05T21:54:41.085Z,7.47
2022-11-05T21:57:29.136Z,8.33
2022-11-05T22:00:01.938Z,7.90
2022-11-05T22:02:30.736Z,7.90
2022-11-05T22:05:00.432Z,7.40
2022-11-05T22:07:32.320Z,7.50
2022-11-05T22:10:00.856Z,7.67
2022-11-05T22:12:29.137Z,7.90
2022-11-05T22:14:57.292Z,7.60
2022-11-05T22:17:25.744Z,7.13
2022-11-05T22:19:53.812Z,7.63
2022-11-05T22:22:23.135Z,7.30
2022-11-05T22:24:51.149Z,7.07
2022-11-05T22:27:21.462Z,7.37
2022-11-05T22:29:49.796Z,6.60
2022-11-05T22:32:18.010Z,6.47
2022-11-05T22:34:46.059Z,6.80
2022-11-05T22:37:14.462Z,6.70
2022-11-05T22:39:43.768Z,6.60
2022-11-05T22:42:11.752Z,6.23
2022-11-05T22:44:39.849Z,6.20
2022-11-05T22:47:08.177Z,6.90
2022-11-05T22:49:36.229Z,6.10
2022-11-05T22:52:04.341Z,5.97
2022-11-05T22:54:37.888Z,5.73
2022-11-05T22:57:08.714Z,5.80
2022-11-05T22:59:36.633Z,5.63
2022-11-05T23:02:09.479Z,5.67
2022-11-05T23:04:38.146Z,5.63
2022-11-05T23:07:27.529Z,5.17
2022-11-05T23:10:13.721Z,5.20
2022-11-05T23:12:44.700Z,5.30
2022-11-05T23:15:34.594Z,5.50
2022-11-05T23:18:34.842Z,5.10
2022-11-05T23:21:22.994Z,5.10
2022-11-05T23:24:10.836Z,4.90
2022-11-05T23:26:52.814Z,5.00
2022-11-05T23:29:24.949Z,5.50
2022-11-05T23:32:11.005Z,4.70
2022-11-05T23:34:39.472Z,5.17
2022-11-05T23:37:25.016Z,4.60
2022-11-05T23:39:53.206Z,5.03
2022-11-05T23:42:39.388Z,4.77
2022-11-05T23:45:27.823Z,4.83
2022-11-05T23:48:13.726Z,4.97
2022-11-05T23:50:42.607Z,4.77
2022-11-05T23:53:11.150Z,5.17
2022-11-05T23:55:40.552Z,4.70
2022-11-05T23:58:09.115Z,4.50
